Time;durP1;ratioP1;P1;durP2;ratioP2;P2;SDS_P1;SDS_P2;PMS_P1;PMS_P2;Temp;Humidity;BMP_temperature;BMP_pressure;BME280_temperature;BME280_humidity;BME280_pressure;Samples;Min_cycle;Max_cycle;Signal;HPM_P1;HPM_P2
2023/08/24 00:00:51;;;;;;;5.63;5.03;;;;;;;27.98;53.59;100989.59;5036948;28;20049;-60
2023/08/24 00:03:21;;;;;;;7.20;6.25;;;;;;;28.00;53.53;100995.72;5037200;28;20472;-60
2023/08/24 00:05:49;;;;;;;7.13;5.47;;;;;;;28.00;53.51;100995.72;5037217;28;20045;-60
2023/08/24 00:08:17;;;;;;;6.55;5.82;;;;;;;28.01;53.36;100995.53;5035220;28;20052;-60
2023/08/24 00:10:46;;;;;;;6.30;5.47;;;;;;;28.02;53.10;101007.25;5037100;28;20068;-60
2023/08/24 00:13:14;;;;;;;6.72;6.03;;;;;;;28.03;53.08;100998.88;5036806;28;20050;-59
2023/08/24 00:15:41;;;;;;;7.18;6.28;;;;;;;28.04;53.37;100997.88;5037040;28;20045;-60
2023/08/24 00:18:09;;;;;;;5.75;5.20;;;;;;;28.06;53.08;100997.69;5036922;28;20049;-60
2023/08/24 00:20:37;;;;;;;6.45;5.75;;;;;;;28.08;52.95;100992.91;5036580;28;20492;-60
2023/08/24 00:23:04;;;;;;;5.55;5.05;;;;;;;28.07;53.27;101000.22;5036501;28;20041;-60
2023/08/24 00:25:31;;;;;;;6.38;5.55;;;;;;;28.09;52.79;100992.72;5037104;28;20060;-60
2023/08/24 00:27:59;;;;;;;7.75;5.35;;;;;;;28.10;53.02;100997.13;5037057;28;20056;-50
2023/08/24 00:30:27;;;;;;;8.07;5.72;;;;;;;28.12;52.85;100990.66;5036447;28;20048;-49
2023/08/24 00:32:54;;;;;;;5.97;5.38;;;;;;;28.12;52.72;100980.63;5042238;28;20045;-48
2023/08/24 00:35:22;;;;;;;7.47;5.82;;;;;;;28.13;53.09;100987.75;5039220;28;20057;-50
2023/08/24 00:37:51;;;;;;;6.53;5.57;;;;;;;28.15;53.11;100988.41;5037385;28;20058;-49
2023/08/24 00:40:18;;;;;;;5.45;4.95;;;;;;;28.17;52.76;100999.13;5042795;28;20056;-49
2023/08/24 00:42:46;;;;;;;6.40;5.45;;;;;;;28.17;52.94;100996.41;5043937;28;20057;-48
2023/08/24 00:45:14;;;;;;;7.55;5.15;;;;;;;28.18;52.71;100989.91;5049918;28;20044;-48
2023/08/24 00:47:46;;;;;;;5.72;5.05;;;;;;;28.18;52.63;100998.91;5039800;28;20048;-60
2023/08/24 00:50:14;;;;;;;6.80;6.10;;;;;;;28.19;52.70;101002.47;5047383;28;20064;-60
2023/08/24 00:52:42;;;;;;;7.00;5.68;;;;;;;28.20;52.62;100999.59;5047442;28;20442;-60
2023/08/24 00:55:09;;;;;;;5.93;5.32;;;;;;;28.22;52.54;100988.50;5039258;28;20049;-60
2023/08/24 00:57:37;;;;;;;7.30;5.45;;;;;;;28.23;52.57;100996.47;5050907;28;20500;-60
2023/08/24 01:00:09;;;;;;;7.55;5.47;;;;;;;28.24;52.41;100994.63;5041668;28;20506;-60
2023/08/24 01:02:40;;;;;;;6.80;5.45;;;;;;;28.24;52.46;100998.19;5042949;28;20057;-60
2023/08/24 01:05:08;;;;;;;5.65;5.03;;;;;;;28.26;52.36;100998.81;5040210;28;20050;-59
2023/08/24 01:07:38;;;;;;;5.40;4.80;;;;;;;28.26;52.81;100996.09;5021623;28;20049;-60
2023/08/24 01:10:10;;;;;;;5.77;5.20;;;;;;;28.27;52.61;100995.06;5044536;28;20056;-60
2023/08/24 01:12:46;;;;;;;8.15;5.55;;;;;;;28.28;52.74;100998.66;5040624;28;20061;-60
2023/08/24 01:15:28;;;;;;;5.78;5.13;;;;;;;28.29;52.60;101000.34;5049101;28;20045;-60
2023/08/24 01:18:04;;;;;;;6.25;5.63;;;;;;;28.31;52.51;101007.28;5042806;28;20060;-49
2023/08/24 01:20:34;;;;;;;5.15;4.65;;;;;;;28.31;52.28;101006.44;5040643;28;20064;-49
2023/08/24 01:23:17;;;;;;;7.10;6.40;;;;;;;28.32;52.61;101002.69;5049073;28;20436;-51
2023/08/24 01:26:03;;;;;;;6.53;5.32;;;;;;;28.33;52.33;100998.94;5043000;28;20060;-51
2023/08/24 01:28:33;;;;;;;7.15;5.45;;;;;;;28.33;52.69;101004.38;5039355;28;20053;-49
2023/08/24 01:31:00;;;;;;;5.80;5.20;;;;;;;28.34;52.28;101009.63;5050271;28;20052;-49
2023/08/24 01:33:27;;;;;;;5.82;5.20;;;;;;;28.37;52.38;101004.88;5040509;28;20045;-49
2023/08/24 01:35:55;;;;;;;6.07;5.47;;;;;;;28.37;52.63;101013.06;5043635;28;20049;-49
2023/08/24 01:38:22;;;;;;;8.05;5.40;;;;;;;28.37;52.49;101008.44;5049392;28;20049;-60
2023/08/24 01:41:13;;;;;;;5.35;4.85;;;;;;;28.38;52.09;101007.41;5039342;28;20056;-60
2023/08/24 01:43:43;;;;;;;7.07;5.15;;;;;;;28.39;52.48;101000.09;5043461;28;20060;-59
2023/08/24 01:46:14;;;;;;;5.30;4.80;;;;;;;28.40;52.08;101009.94;5048096;28;20049;-60
2023/08/24 01:48:44;;;;;;;6.80;5.00;;;;;;;28.39;52.25;101003.66;5044085;28;20526;-50
2023/08/24 01:51:13;;;;;;;7.05;5.57;;;;;;;28.41;52.45;101000.75;5033540;28;20057;-50
2023/08/24 01:53:41;;;;;;;6.80;5.30;;;;;;;28.42;52.18;101005.16;5034705;28;20041;-49
2023/08/24 01:56:12;;;;;;;6.13;5.53;;;;;;;28.42;52.48;101008.72;5035425;28;20053;-49
2023/08/24 01:58:40;;;;;;;6.07;4.55;;;;;;;28.43;52.51;101001.41;5033185;28;20058;-49
2023/08/24 02:01:08;;;;;;;8.52;5.30;;;;;;;28.43;52.12;101002.25;5033734;28;20427;-48
2023/08/24 02:03:36;;;;;;;6.00;4.95;;;;;;;28.44;52.22;101012.13;5035304;28;20049;-49
2023/08/24 02:06:05;;;;;;;6.18;4.95;;;;;;;28.46;52.25;101017.38;5034914;28;20072;-48
2023/08/24 02:08:32;;;;;;;6.22;5.63;;;;;;;28.46;52.42;101012.75;5034692;28;20050;-60
2023/08/24 02:11:00;;;;;;;6.05;5.38;;;;;;;28.46;52.55;101020.94;5048787;28;20060;-60
2023/08/24 02:13:27;;;;;;;5.80;5.05;;;;;;;28.47;52.42;101016.31;5041512;28;20053;-60
2023/08/24 02:16:21;;;;;;;5.70;5.00;;;;;;;28.47;52.36;101019.06;5052970;28;20052;-60
2023/08/24 02:18:48;;;;;;;7.93;5.63;;;;;;;28.48;52.54;101021.59;5039207;28;20534;-52
2023/08/24 02:21:16;;;;;;;6.30;5.63;;;;;;;28.49;52.53;101026.00;5041820;28;20045;-48
2023/08/24 02:23:43;;;;;;;6.07;5.38;;;;;;;28.49;52.28;101015.13;5049311;28;20064;-51
2023/08/24 02:26:10;;;;;;;5.57;4.97;;;;;;;28.50;52.62;101022.25;5038238;28;20062;-49
2023/08/24 02:28:38;;;;;;;6.07;5.40;;;;;;;28.50;52.66;101014.06;5046209;28;20045;-50
2023/08/24 02:31:05;;;;;;;6.63;5.55;;;;;;;28.51;52.66;101021.22;5045753;28;20052;-48
2023/08/24 02:33:33;;;;;;;5.75;4.80;;;;;;;28.53;52.35;101012.88;5036981;28;20060;-48
2023/08/24 02:36:01;;;;;;;6.32;5.35;;;;;;;28.53;52.21;101012.88;5049824;28;20405;-52
2023/08/24 02:38:29;;;;;;;6.32;5.72;;;;;;;28.53;52.74;101012.88;5040289;28;20507;-60
2023/08/24 02:41:07;;;;;;;6.05;5.45;;;;;;;28.55;52.69;101013.50;5041468;28;20056;-60
2023/08/24 02:43:34;;;;;;;5.75;5.15;;;;;;;28.55;52.54;101021.69;5035006;28;20049;-60
2023/08/24 02:46:05;;;;;;;6.18;5.20;;;;;;;28.55;52.29;101025.25;5047979;28;20130;-60
2023/08/24 02:48:33;;;;;;;6.22;5.63;;;;;;;28.56;52.38;101017.91;5043421;28;20049;-60
2023/08/24 02:51:03;;;;;;;6.55;5.85;;;;;;;28.57;52.73;101011.47;5039694;28;20041;-60
2023/08/24 02:53:31;;;;;;;6.20;5.00;;;;;;;28.57;52.61;101022.34;5047390;28;20509;-60
2023/08/24 02:56:00;;;;;;;6.18;4.95;;;;;;;28.58;52.36;101011.25;5040094;28;20053;-60
2023/08/24 02:58:29;;;;;;;8.32;6.38;;;;;;;28.59;52.64;101012.94;5042445;28;20064;-60
2023/08/24 03:00:56;;;;;;;7.15;5.13;;;;;;;28.59;52.72;101012.94;5046119;28;20049;-60
2023/08/24 03:03:25;;;;;;;6.30;5.45;;;;;;;28.60;52.64;101013.78;5043178;28;20049;-59
2023/08/24 03:05:56;;;;;;;5.53;4.80;;;;;;;28.61;52.35;101009.19;5040428;28;20052;-60
2023/08/24 03:08:24;;;;;;;6.18;5.40;;;;;;;28.61;52.80;101017.38;5040842;28;20060;-60
2023/08/24 03:10:52;;;;;;;7.65;6.55;;;;;;;28.61;52.36;101010.03;5033317;28;20060;-60
2023/08/24 03:13:20;;;;;;;5.97;4.75;;;;;;;28.62;52.44;101010.88;5031860;28;20446;-60
2023/08/24 03:15:47;;;;;;;5.80;5.20;;;;;;;28.62;52.57;101009.00;5033634;28;20041;-60
2023/08/24 03:18:17;;;;;;;6.97;5.60;;;;;;;28.64;52.51;101008.81;5034218;28;20045;-48
2023/08/24 03:20:46;;;;;;;6.68;5.25;;;;;;;28.63;52.50;101018.84;5047214;28;20056;-48
2023/08/24 03:23:16;;;;;;;6.45;5.40;;;;;;;28.64;52.56;101020.53;5032363;28;20523;-50
2023/08/24 03:25:44;;;;;;;6.28;5.60;;;;;;;28.64;52.33;101020.53;5032255;28;20054;-49
2023/08/24 03:28:11;;;;;;;5.80;5.20;;;;;;;28.65;52.42;101024.13;5032391;28;20050;-49
2023/08/24 03:30:45;;;;;;;5.90;4.68;;;;;;;28.65;52.82;101016.81;5037021;28;20053;-47
2023/08/24 03:33:13;;;;;;;5.03;4.53;;;;;;;28.67;52.33;101016.59;5035872;28;20060;-48
2023/08/24 03:35:40;;;;;;;5.90;5.32;;;;;;;28.65;52.80;101021.41;5034099;28;20050;-51
2023/08/24 03:38:08;;;;;;;5.88;5.07;;;;;;;28.67;52.70;101019.31;5034463;28;20060;-49
2023/08/24 03:40:36;;;;;;;6.47;5.55;;;;;;;28.68;52.50;101021.00;5034124;28;20053;-52
2023/08/24 03:43:04;;;;;;;5.57;5.07;;;;;;;28.68;52.67;101015.56;5045978;28;20392;-51
2023/08/24 03:45:31;;;;;;;7.00;5.60;;;;;;;28.68;52.60;101013.69;5042373;28;20041;-51
2023/08/24 03:47:59;;;;;;;6.25;5.63;;;;;;;28.69;52.79;101006.38;5040274;28;20403;-60
2023/08/24 03:50:26;;;;;;;5.90;5.28;;;;;;;28.69;52.89;101006.38;5047316;28;20062;-60
2023/08/24 03:52:54;;;;;;;6.13;5.53;;;;;;;28.69;52.90;101011.81;5038685;28;20045;-60
2023/08/24 03:55:22;;;;;;;6.38;5.30;;;;;;;28.69;53.01;101014.56;5042304;28;20046;-62
2023/08/24 03:57:50;;;;;;;6.32;5.70;;;;;;;28.70;52.94;101008.06;5044556;28;20049;-56
2023/08/24 04:00:18;;;;;;;6.95;5.80;;;;;;;28.68;52.74;101015.56;5037091;28;20050;-56
2023/08/24 04:02:46;;;;;;;6.60;5.53;;;;;;;28.67;52.56;101014.72;5046029;28;20415;-57
2023/08/24 04:05:21;;;;;;;6.57;5.90;;;;;;;28.68;52.67;101021.00;5042958;28;20045;-57
2023/08/24 04:07:48;;;;;;;7.75;6.03;;;;;;;28.67;52.22;101020.16;5038306;28;20049;-57
2023/08/24 04:10:16;;;;;;;6.30;5.60;;;;;;;28.68;52.53;101012.84;5051148;28;20056;-57
2023/08/24 04:12:43;;;;;;;6.13;5.53;;;;;;;28.67;52.62;101014.72;5035165;28;20056;-57
2023/08/24 04:15:11;;;;;;;7.40;6.63;;;;;;;28.68;52.52;101024.56;5036849;28;20052;-57
2023/08/24 04:17:38;;;;;;;7.28;5.72;;;;;;;28.68;52.31;101021.00;5033064;28;20500;-63
2023/08/24 04:20:10;;;;;;;6.40;5.53;;;;;;;28.68;52.67;101024.56;5036846;28;20072;-63
2023/08/24 04:22:37;;;;;;;6.80;5.40;;;;;;;28.68;52.44;101021.84;5036649;28;20049;-63
2023/08/24 04:25:06;;;;;;;6.85;5.95;;;;;;;28.70;52.63;101018.97;5036622;28;20068;-63
2023/08/24 04:27:33;;;;;;;6.63;5.93;;;;;;;28.70;52.62;101027.13;5037319;28;20049;-57
2023/08/24 04:30:01;;;;;;;6.63;5.93;;;;;;;28.69;52.71;101022.72;5036460;28;20117;-57
2023/08/24 04:32:28;;;;;;;6.20;5.63;;;;;;;28.70;52.18;101036.16;5036427;28;20048;-57
2023/08/24 04:34:56;;;;;;;7.32;5.78;;;;;;;28.71;52.14;101039.72;5035211;28;20053;-57
2023/08/24 04:37:23;;;;;;;6.30;5.70;;;;;;;28.71;52.25;101036.97;5037109;28;20453;-61
2023/08/24 04:39:51;;;;;;;6.53;5.90;;;;;;;28.71;52.52;101051.44;5036194;28;20495;-63
2023/08/24 04:42:18;;;;;;;6.80;6.07;;;;;;;28.72;52.29;101053.13;5036566;28;20411;-63
2023/08/24 04:44:45;;;;;;;6.35;5.75;;;;;;;28.71;52.58;101054.16;5036470;28;20425;-63
2023/08/24 04:47:12;;;;;;;7.63;6.00;;;;;;;28.72;52.26;101046.84;5036632;28;20045;-63
2023/08/24 04:49:40;;;;;;;6.18;5.57;;;;;;;28.72;52.25;101055.00;5035009;28;20041;-56
2023/08/24 04:52:07;;;;;;;6.93;6.20;;;;;;;28.71;52.31;101046.00;5036387;28;20399;-56
2023/08/24 04:54:35;;;;;;;6.32;5.72;;;;;;;28.72;51.94;101044.97;5036309;28;20494;-57
2023/08/24 04:57:02;;;;;;;7.10;6.40;;;;;;;28.72;52.35;101046.84;5036519;28;20377;-57
2023/08/24 04:59:29;;;;;;;6.60;5.85;;;;;;;28.71;51.82;101043.28;5036020;28;20056;-63
2023/08/24 05:01:57;;;;;;;6.97;6.28;;;;;;;28.72;52.24;101052.28;5036296;28;20052;-63
2023/08/24 05:04:24;;;;;;;7.00;5.97;;;;;;;28.71;52.09;101054.16;5036297;28;20358;-63
2023/08/24 05:06:52;;;;;;;7.57;5.82;;;;;;;28.71;51.66;101056.06;5036177;28;20042;-63
2023/08/24 05:09:19;;;;;;;6.78;6.07;;;;;;;28.71;52.13;101058.78;5038259;28;20045;-56
2023/08/24 05:11:46;;;;;;;7.20;6.38;;;;;;;28.72;51.62;101068.63;5047802;28;20105;-56
2023/08/24 05:14:14;;;;;;;7.85;6.20;;;;;;;28.72;51.57;101065.91;5046150;28;20045;-56
2023/08/24 05:16:41;;;;;;;7.65;6.03;;;;;;;28.72;51.75;101074.09;5040375;28;20037;-56
2023/08/24 05:19:09;;;;;;;6.55;5.82;;;;;;;28.73;51.86;101083.97;5050455;28;20049;-63
2023/08/24 05:21:36;;;;;;;7.07;6.32;;;;;;;28.73;51.50;101070.34;5041260;28;20510;-62
2023/08/24 05:24:04;;;;;;;5.75;5.05;;;;;;;28.73;51.59;101073.06;5042591;28;20054;-62
2023/08/24 05:26:31;;;;;;;6.10;5.50;;;;;;;28.73;51.38;101067.63;5049481;28;20491;-62
2023/08/24 05:28:59;;;;;;;6.60;5.93;;;;;;;28.73;51.26;101070.34;5038991;28;20076;-56
2023/08/24 05:31:26;;;;;;;6.30;5.40;;;;;;;28.72;51.39;101066.75;5047911;28;20045;-56
2023/08/24 05:33:53;;;;;;;7.53;5.95;;;;;;;28.73;51.17;101064.91;5039071;28;20041;-56
2023/08/24 05:36:21;;;;;;;6.13;5.60;;;;;;;28.73;51.03;101060.28;5048981;28;20060;-56
2023/08/24 05:38:48;;;;;;;6.60;5.90;;;;;;;28.74;50.86;101059.25;5038772;28;20053;-63
2023/08/24 05:41:18;;;;;;;6.13;5.53;;;;;;;28.74;51.11;101063.88;5047572;28;20052;-62
2023/08/24 05:43:46;;;;;;;6.22;5.53;;;;;;;28.75;51.21;101065.53;5035203;28;20046;-62
2023/08/24 05:46:13;;;;;;;5.90;5.25;;;;;;;28.75;50.79;101076.44;5035716;28;20049;-62
2023/08/24 05:48:40;;;;;;;6.13;5.53;;;;;;;28.75;51.14;101066.38;5034914;28;20056;-56
2023/08/24 05:51:09;;;;;;;7.15;5.20;;;;;;;28.77;51.13;101064.34;5034753;28;20054;-56
2023/08/24 05:53:38;;;;;;;5.85;5.25;;;;;;;28.76;51.10;101065.38;5035091;28;20045;-56
2023/08/24 05:56:05;;;;;;;6.70;5.22;;;;;;;28.78;51.03;101068.75;5035383;28;20048;-56
2023/08/24 05:58:32;;;;;;;8.30;6.05;;;;;;;28.78;50.72;101071.47;5034937;28;20045;-56
2023/08/24 06:01:00;;;;;;;7.72;5.60;;;;;;;28.79;51.10;101075.88;5034570;28;20049;-56
2023/08/24 06:03:27;;;;;;;6.47;5.30;;;;;;;28.80;50.74;101077.59;5035105;28;20384;-56
2023/08/24 06:06:02;;;;;;;6.90;5.65;;;;;;;28.79;51.16;101073.16;5034975;28;20044;-56
2023/08/24 06:08:30;;;;;;;6.07;5.47;;;;;;;28.80;50.91;101069.41;5034373;28;20045;-63
2023/08/24 06:10:58;;;;;;;6.35;5.22;;;;;;;28.81;50.97;101072.97;5034189;28;20041;-62
2023/08/24 06:13:25;;;;;;;5.88;5.25;;;;;;;28.81;50.84;101073.81;5034020;28;20385;-62
2023/08/24 06:15:54;;;;;;;6.45;5.35;;;;;;;28.81;50.80;101075.69;5033700;28;20042;-63
2023/08/24 06:18:22;;;;;;;5.22;4.72;;;;;;;28.83;50.92;101081.78;5034104;28;20049;-56
2023/08/24 06:20:49;;;;;;;6.20;5.25;;;;;;;28.83;50.75;101081.78;5033916;28;20061;-56
2023/08/24 06:23:17;;;;;;;6.40;5.72;;;;;;;28.83;50.72;101085.34;5033848;28;20049;-56
2023/08/24 06:25:45;;;;;;;6.15;5.10;;;;;;;28.82;50.37;101083.69;5034294;28;20049;-56
2023/08/24 06:28:13;;;;;;;5.97;5.15;;;;;;;28.81;50.63;101081.16;5034099;28;20057;-56
2023/08/24 06:30:42;;;;;;;7.05;5.25;;;;;;;28.79;50.17;101086.78;5033935;28;20050;-56
2023/08/24 06:33:13;;;;;;;6.47;5.00;;;;;;;28.76;50.15;101072.69;5032820;28;20049;-56
2023/08/24 06:35:40;;;;;;;7.55;5.40;;;;;;;28.75;50.48;101081.88;5035235;28;20068;-56
2023/08/24 06:38:08;;;;;;;7.07;5.15;;;;;;;28.74;50.43;101085.66;5048035;28;20045;-55
2023/08/24 06:40:35;;;;;;;8.15;5.90;;;;;;;28.74;50.14;101085.66;5043737;28;20056;-56
2023/08/24 06:43:03;;;;;;;7.78;5.30;;;;;;;28.72;50.12;101074.09;5040492;28;20056;-61
2023/08/24 06:45:31;;;;;;;7.15;5.25;;;;;;;28.70;50.31;101077.00;5049910;28;20049;-62
2023/08/24 06:47:59;;;;;;;5.80;5.20;;;;;;;28.68;50.01;101070.88;5034007;28;20053;-56
2023/08/24 06:50:26;;;;;;;7.00;5.97;;;;;;;28.67;49.76;101068.38;5043632;28;20048;-56
2023/08/24 06:52:54;;;;;;;6.53;5.30;;;;;;;28.66;49.60;101070.25;5040020;28;20487;-55
2023/08/24 06:55:21;;;;;;;7.28;5.93;;;;;;;28.65;49.50;101076.75;5049013;28;20049;-56
2023/08/24 06:57:50;;;;;;;5.90;5.30;;;;;;;28.63;49.17;101080.66;5038313;28;20052;-60
2023/08/24 07:00:19;;;;;;;5.97;5.20;;;;;;;28.61;48.88;101082.75;5047533;28;20082;-61
2023/08/24 07:02:51;;;;;;;5.18;4.78;;;;;;;28.61;48.94;101082.75;5038714;28;20061;-60
2023/08/24 07:05:19;;;;;;;7.18;5.65;;;;;;;28.59;48.94;101077.47;5048596;28;20052;-61
2023/08/24 07:07:49;;;;;;;7.20;5.22;;;;;;;28.59;48.79;101072.88;5039593;28;20045;-60
2023/08/24 07:10:17;;;;;;;5.95;5.25;;;;;;;28.62;48.80;101070.81;5041692;28;20053;-60
2023/08/24 07:12:45;;;;;;;6.22;5.63;;;;;;;28.63;48.85;101072.50;5048247;28;20057;-61
2023/08/24 07:15:12;;;;;;;7.15;5.78;;;;;;;28.64;48.61;101076.91;5037084;28;20056;-60
2023/08/24 07:17:40;;;;;;;7.43;5.28;;;;;;;28.65;48.92;101071.28;5045494;28;20045;-60
2023/08/24 07:20:09;;;;;;;6.55;5.30;;;;;;;28.68;48.72;101072.78;5044253;28;20075;-60
2023/08/24 07:22:36;;;;;;;6.57;5.95;;;;;;;28.68;49.10;101068.16;5037564;28;20048;-61
2023/08/24 07:25:05;;;;;;;6.10;5.50;;;;;;;28.70;48.92;101070.72;5048204;28;20049;-60
2023/08/24 07:27:33;;;;;;;6.32;5.38;;;;;;;28.71;48.54;101075.97;5040377;28;20045;-60
2023/08/24 07:30:05;;;;;;;6.25;5.50;;;;;;;28.71;48.33;101070.53;5040610;28;20052;-61
2023/08/24 07:32:48;;;;;;;6.05;5.45;;;;;;;28.72;48.24;101076.81;5035539;28;20053;-61
2023/08/24 07:35:16;;;;;;;7.28;5.95;;;;;;;28.73;48.40;101071.19;5045999;28;20061;-60
2023/08/24 07:37:43;;;;;;;5.90;4.93;;;;;;;28.74;47.98;101074.75;5043081;28;20045;-55
2023/08/24 07:40:11;;;;;;;6.47;5.57;;;;;;;28.74;48.09;101069.31;5038361;28;20049;-56
2023/08/24 07:42:47;;;;;;;5.78;5.18;;;;;;;28.75;48.27;101077.28;5040639;28;20068;-51
2023/08/24 07:45:15;;;;;;;5.00;4.50;;;;;;;28.75;48.42;101080.00;5039193;28;20050;-53
2023/08/24 07:47:43;;;;;;;6.90;5.50;;;;;;;28.76;47.87;101084.44;5042366;28;20411;-57
2023/08/24 07:50:11;;;;;;;7.20;5.55;;;;;;;28.75;47.99;101085.47;5039326;28;20048;-58
2023/08/24 07:52:39;;;;;;;6.50;5.40;;;;;;;28.76;47.79;101078.13;5036854;28;20048;-60
2023/08/24 07:55:08;;;;;;;5.05;4.20;;;;;;;28.76;47.58;101076.28;5044142;28;20053;-60
2023/08/24 07:57:36;;;;;;;5.60;4.93;;;;;;;28.77;47.76;101082.56;5041046;28;20053;-49
2023/08/24 08:00:05;;;;;;;5.32;4.78;;;;;;;28.78;47.44;101081.53;5040274;28;20048;-50
2023/08/24 08:02:41;;;;;;;7.85;5.63;;;;;;;28.78;47.57;101085.09;5036799;28;20403;-49
2023/08/24 08:05:12;;;;;;;5.47;4.85;;;;;;;28.81;48.00;101086.59;5036537;28;20068;-50
2023/08/24 08:07:40;;;;;;;5.80;4.82;;;;;;;28.81;47.93;101084.72;5037597;28;20034;-59
2023/08/24 08:10:07;;;;;;;8.65;6.30;;;;;;;28.82;48.15;101094.56;5041970;28;20049;-60
2023/08/24 08:12:35;;;;;;;9.70;6.25;;;;;;;28.83;48.48;101098.97;5042303;28;20049;-60
2023/08/24 08:15:03;;;;;;;7.60;5.15;;;;;;;28.85;48.06;101101.53;5045999;28;20048;-60
2023/08/24 08:17:33;;;;;;;7.80;5.78;;;;;;;28.86;48.36;101094.22;5049608;28;20056;-50
2023/08/24 08:20:00;;;;;;;7.75;5.38;;;;;;;28.88;48.62;101105.75;5040366;28;20046;-52
2023/08/24 08:22:27;;;;;;;6.68;6.00;;;;;;;28.88;48.70;101101.13;5049582;28;20050;-50
2023/08/24 08:24:56;;;;;;;7.20;6.35;;;;;;;28.90;48.51;101099.09;5046420;28;20060;-50
2023/08/24 08:27:23;;;;;;;7.22;5.28;;;;;;;28.93;48.56;101097.88;5041145;28;20046;-59
2023/08/24 08:29:51;;;;;;;6.85;6.15;;;;;;;28.92;48.67;101099.72;5051278;28;20056;-50
2023/08/24 08:32:19;;;;;;;7.65;5.35;;;;;;;28.95;49.13;101104.81;5042498;28;20041;-50
2023/08/24 08:34:46;;;;;;;7.38;6.22;;;;;;;28.96;48.97;101100.19;5045364;28;20045;-52
2023/08/24 08:37:13;;;;;;;7.47;5.80;;;;;;;28.96;49.37;101094.75;5049549;28;20052;-55
2023/08/24 08:39:41;;;;;;;8.00;5.88;;;;;;;28.98;49.50;101095.44;5050311;28;20049;-59
2023/08/24 08:42:13;;;;;;;6.90;5.93;;;;;;;28.98;49.70;101099.00;5051767;28;20045;-60
2023/08/24 08:44:43;;;;;;;8.57;6.72;;;;;;;28.99;49.69;101106.16;5051431;28;20049;-59
2023/08/24 08:47:14;;;;;;;7.70;5.93;;;;;;;29.01;49.55;101097.81;5042738;28;20402;-59
2023/08/24 08:49:43;;;;;;;7.40;5.83;;;;;;;29.01;49.35;101095.91;5034986;28;20389;-49
2023/08/24 08:52:11;;;;;;;7.20;6.03;;;;;;;29.02;49.44;101078.53;5036209;28;20052;-51
2023/08/24 08:54:40;;;;;;;11.32;6.82;;;;;;;29.02;49.35;101092.16;5047940;28;20049;-48
2023/08/24 08:57:07;;;;;;;8.02;5.82;;;;;;;29.05;49.35;101085.50;5038467;28;20033;-50
2023/08/24 08:59:35;;;;;;;7.18;6.47;;;;;;;29.05;49.50;101083.59;5046771;28;20060;-59
2023/08/24 09:02:03;;;;;;;7.07;6.38;;;;;;;29.06;49.84;101084.44;5035756;28;20484;-60
2023/08/24 09:04:32;;;;;;;8.70;7.00;;;;;;;29.06;49.88;101084.44;5035579;28;20041;-59
2023/08/24 09:07:07;;;;;;;7.13;6.43;;;;;;;29.08;49.62;101090.53;5050562;28;20044;-60
2023/08/24 09:09:35;;;;;;;6.95;6.22;;;;;;;29.08;49.50;101083.19;5035598;28;20590;-60
2023/08/24 09:12:05;;;;;;;6.90;6.20;;;;;;;29.10;49.73;101088.47;5035599;28;20052;-60
2023/08/24 09:14:33;;;;;;;7.07;6.15;;;;;;;29.11;49.53;101086.59;5037249;28;20045;-60
2023/08/24 09:17:01;;;;;;;6.78;6.07;;;;;;;29.10;49.76;101080.31;5038154;28;20052;-60
2023/08/24 09:19:30;;;;;;;7.75;6.03;;;;;;;29.12;49.62;101082.81;5048609;28;20411;-59
2023/08/24 09:21:58;;;;;;;7.57;6.53;;;;;;;29.12;49.17;101074.66;5035297;28;20049;-60
2023/08/24 09:24:32;;;;;;;7.65;6.72;;;;;;;29.12;49.13;101067.31;5035844;28;20529;-60
2023/08/24 09:27:15;;;;;;;6.80;6.18;;;;;;;29.13;49.01;101073.59;5050329;28;20053;-59
2023/08/24 09:29:53;;;;;;;6.93;5.90;;;;;;;29.13;48.97;101069.03;5035325;28;20049;-59
2023/08/24 09:32:24;;;;;;;7.35;6.40;;;;;;;29.14;48.82;101070.69;5036974;28;20052;-59
2023/08/24 09:34:52;;;;;;;7.18;6.47;;;;;;;29.15;48.59;101071.53;5035920;28;20049;-59
2023/08/24 09:37:20;;;;;;;8.02;6.78;;;;;;;29.16;48.64;101059.59;5034885;28;20054;-59
2023/08/24 09:39:48;;;;;;;6.88;6.10;;;;;;;29.15;48.94;101056.03;5034941;28;20060;-50
2023/08/24 09:42:26;;;;;;;7.10;5.95;;;;;;;29.17;48.62;101064.88;5049469;28;20041;-52
2023/08/24 09:45:04;;;;;;;7.45;5.82;;;;;;;29.16;48.93;101054.13;5037073;28;20045;-50
2023/08/24 09:47:33;;;;;;;8.02;6.10;;;;;;;29.16;48.58;101046.81;5045348;28;20049;-59
2023/08/24 09:50:00;;;;;;;6.70;6.00;;;;;;;29.17;48.52;101048.50;5039935;28;20045;-59
2023/08/24 09:52:33;;;;;;;6.50;5.85;;;;;;;29.18;48.45;101044.75;5048263;28;20049;-59
2023/08/24 09:55:07;;;;;;;7.22;6.10;;;;;;;29.18;48.30;101047.47;5046730;28;20480;-59
2023/08/24 09:57:39;;;;;;;5.93;5.32;;;;;;;29.20;48.25;101045.38;5046498;28;20503;-50
2023/08/24 10:00:14;;;;;;;7.93;6.07;;;;;;;29.21;48.66;101041.66;5038304;28;20048;-49
2023/08/24 10:02:55;;;;;;;7.82;6.10;;;;;;;29.22;48.05;101046.06;5048112;28;20041;-49
2023/08/24 10:05:25;;;;;;;7.10;5.90;;;;;;;29.23;48.58;101044.16;5046011;28;20057;-49
2023/08/24 10:08:11;;;;;;;7.80;5.88;;;;;;;29.23;48.16;101036.81;5038241;28;20041;-49
2023/08/24 10:10:41;;;;;;;7.28;5.80;;;;;;;29.25;48.02;101039.34;5047236;28;20048;-50
2023/08/24 10:13:17;;;;;;;6.88;6.18;;;;;;;29.26;47.77;101041.06;5035040;28;20065;-52
2023/08/24 10:15:47;;;;;;;5.68;5.00;;;;;;;29.27;47.77;101034.56;5034651;28;20053;-49
2023/08/24 10:18:19;;;;;;;8.43;5.63;;;;;;;29.27;47.17;101029.94;5038508;28;20033;-57
2023/08/24 10:20:47;;;;;;;6.40;5.80;;;;;;;29.28;46.97;101026.19;5044936;28;20407;-58
2023/08/24 10:23:16;;;;;;;5.65;5.15;;;;;;;29.28;47.06;101028.91;5046642;28;20049;-58
2023/08/24 10:25:45;;;;;;;7.30;5.63;;;;;;;29.29;47.24;101032.47;5044944;28;20059;-58
2023/08/24 10:28:16;;;;;;;7.63;6.35;;;;;;;29.31;46.93;101028.53;5046946;28;20041;-58
2023/08/24 10:30:45;;;;;;;6.43;5.80;;;;;;;29.32;47.50;101015.72;5048301;28;20049;-57
2023/08/24 10:33:15;;;;;;;7.13;5.60;;;;;;;29.35;47.46;101015.34;5039746;28;20049;-57
2023/08/24 10:35:43;;;;;;;6.72;5.80;;;;;;;29.39;47.58;101008.47;5035763;28;20480;-57
2023/08/24 10:38:27;;;;;;;5.85;5.35;;;;;;;29.40;47.62;101009.31;5048654;28;20049;-59
2023/08/24 10:41:01;;;;;;;6.50;5.15;;;;;;;29.43;47.66;101004.31;5041052;28;20061;-58
2023/08/24 10:43:28;;;;;;;6.55;5.88;;;;;;;29.46;47.36;101000.34;5035633;28;20392;-58
2023/08/24 10:45:57;;;;;;;8.07;5.97;;;;;;;29.48;47.39;101001.84;5033867;28;20372;-57
2023/08/24 10:48:29;;;;;;;5.82;5.18;;;;;;;29.49;47.19;101002.69;5043254;28;20049;-56
2023/08/24 10:51:28;;;;;;;6.30;5.15;;;;;;;29.51;46.94;101006.06;5039560;28;20056;-58
2023/08/24 10:54:05;;;;;;;5.78;5.20;;;;;;;29.53;46.82;100999.38;5040196;28;20104;-58
2023/08/24 10:56:39;;;;;;;5.45;4.80;;;;;;;29.54;47.10;100998.34;5041214;28;20045;-59
2023/08/24 10:59:17;;;;;;;6.15;5.55;;;;;;;29.56;46.55;100995.41;5035092;28;20045;-59
2023/08/24 11:01:58;;;;;;;6.22;5.63;;;;;;;29.57;46.32;100994.38;5046955;28;20049;-58
2023/08/24 11:04:25;;;;;;;6.65;5.47;;;;;;;29.58;45.85;100989.81;5046718;28;20053;-52
2023/08/24 11:07:02;;;;;;;7.32;5.93;;;;;;;29.58;46.17;100989.81;5048532;28;20052;-58
2023/08/24 11:09:47;;;;;;;6.47;5.20;;;;;;;29.56;46.33;100982.63;5038497;28;20049;-58
2023/08/24 11:12:15;;;;;;;7.60;5.75;;;;;;;29.56;46.46;100988.09;5040733;28;20049;-56
2023/08/24 11:14:58;;;;;;;5.32;4.82;;;;;;;29.58;46.44;100987.06;5048450;28;20408;-55
2023/08/24 11:17:31;;;;;;;7.28;6.07;;;;;;;29.60;46.24;100987.72;5039348;28;20049;-58
2023/08/24 11:20:00;;;;;;;6.70;5.30;;;;;;;29.61;46.57;100981.19;5046213;28;20045;-59
2023/08/24 11:22:31;;;;;;;;;;;;;;;29.61;46.17;100973.03;5042607;28;20456;-59
2023/08/24 11:24:59;;;;;;;6.00;5.43;;;;;;;29.65;46.22;100968.84;5051614;28;19926;-61
2023/08/24 11:27:27;;;;;;;7.60;5.35;;;;;;;29.67;46.01;100973.09;5044776;28;20044;-53
2023/08/24 11:30:03;;;;;;;6.32;5.40;;;;;;;29.68;46.28;100976.66;5045311;28;20042;-58
2023/08/24 11:32:30;;;;;;;8.32;6.25;;;;;;;29.69;45.94;100962.81;5040958;28;20492;-57
2023/08/24 11:34:57;;;;;;;6.70;6.00;;;;;;;29.68;46.62;100963.00;5041690;28;20403;-59